sensor_id;sensor_type;location;lat;lon;timestamp;temperature;humidity
52016;DHT22;38032;53.326;6.472;2023-07-29T00:00:43;19.20;99.90
52016;DHT22;38032;53.326;6.472;2023-07-29T00:03:10;19.20;99.90
52016;DHT22;38032;53.326;6.472;2023-07-29T00:05:37;19.20;99.90
52016;DHT22;38032;53.326;6.472;2023-07-29T00:08:03;19.20;99.90
52016;DHT22;38032;53.326;6.472;2023-07-29T00:10:31;19.30;99.90
52016;DHT22;38032;53.326;6.472;2023-07-29T00:12:58;19.30;99.90
52016;DHT22;38032;53.326;6.472;2023-07-29T00:15:24;19.30;99.90
52016;DHT22;38032;53.326;6.472;2023-07-29T00:17:50;19.30;99.90
52016;DHT22;38032;53.326;6.472;2023-07-29T00:20:16;19.30;99.90
52016;DHT22;38032;53.326;6.472;2023-07-29T00:22:42;19.30;99.90
52016;DHT22;38032;53.326;6.472;2023-07-29T00:25:08;19.30;99.90
52016;DHT22;38032;53.326;6.472;2023-07-29T00:27:34;19.30;99.90
52016;DHT22;38032;53.326;6.472;2023-07-29T00:29:59;19.30;99.90
52016;DHT22;38032;53.326;6.472;2023-07-29T00:32:29;19.30;99.90
52016;DHT22;38032;53.326;6.472;2023-07-29T00:34:55;19.30;99.90
52016;DHT22;38032;53.326;6.472;2023-07-29T00:37:21;19.40;99.90
52016;DHT22;38032;53.326;6.472;2023-07-29T00:39:47;19.40;99.90
52016;DHT22;38032;53.326;6.472;2023-07-29T00:42:13;19.30;99.90
52016;DHT22;38032;53.326;6.472;2023-07-29T00:44:38;19.30;99.90
52016;DHT22;38032;53.326;6.472;2023-07-29T00:47:05;19.40;99.90
52016;DHT22;38032;53.326;6.472;2023-07-29T00:49:32;19.30;99.90
52016;DHT22;38032;53.326;6.472;2023-07-29T00:51:58;19.30;99.90
52016;DHT22;38032;53.326;6.472;2023-07-29T00:54:24;19.30;99.90
52016;DHT22;38032;53.326;6.472;2023-07-29T00:56:50;19.30;99.90
52016;DHT22;38032;53.326;6.472;2023-07-29T00:59:16;19.30;99.90
52016;DHT22;38032;53.326;6.472;2023-07-29T01:01:42;19.30;99.90
52016;DHT22;38032;53.326;6.472;2023-07-29T01:04:08;19.30;99.90
52016;DHT22;38032;53.326;6.472;2023-07-29T01:06:47;19.30;99.90
52016;DHT22;38032;53.326;6.472;2023-07-29T01:12:12;19.30;99.90
52016;DHT22;38032;53.326;6.472;2023-07-29T01:17:23;19.30;99.90
52016;DHT22;38032;53.326;6.472;2023-07-29T01:20:01;19.30;99.90
52016;DHT22;38032;53.326;6.472;2023-07-29T01:22:33;19.30;99.90
52016;DHT22;38032;53.326;6.472;2023-07-29T01:24:59;19.30;99.90
52016;DHT22;38032;53.326;6.472;2023-07-29T01:27:26;19.30;99.90
52016;DHT22;38032;53.326;6.472;2023-07-29T01:29:54;19.30;99.90
52016;DHT22;38032;53.326;6.472;2023-07-29T01:35:17;19.20;99.90
52016;DHT22;38032;53.326;6.472;2023-07-29T01:37:49;19.20;99.90
52016;DHT22;38032;53.326;6.472;2023-07-29T01:40:17;19.20;99.90
52016;DHT22;38032;53.326;6.472;2023-07-29T01:42:43;19.20;99.90
52016;DHT22;38032;53.326;6.472;2023-07-29T01:45:11;19.20;99.90
52016;DHT22;38032;53.326;6.472;2023-07-29T01:47:37;19.10;99.90
52016;DHT22;38032;53.326;6.472;2023-07-29T01:50:07;19.20;99.90
52016;DHT22;38032;53.326;6.472;2023-07-29T01:52:33;19.20;99.90
52016;DHT22;38032;53.326;6.472;2023-07-29T01:54:59;19.10;99.90
52016;DHT22;38032;53.326;6.472;2023-07-29T01:57:25;19.10;99.90
52016;DHT22;38032;53.326;6.472;2023-07-29T01:59:51;19.10;99.90
52016;DHT22;38032;53.326;6.472;2023-07-29T02:02:16;19.10;99.90
52016;DHT22;38032;53.326;6.472;2023-07-29T02:04:42;19.10;99.90
52016;DHT22;38032;53.326;6.472;2023-07-29T02:07:08;19.10;99.90
52016;DHT22;38032;53.326;6.472;2023-07-29T02:09:34;19.10;99.90
52016;DHT22;38032;53.326;6.472;2023-07-29T02:12:00;19.10;99.90
52016;DHT22;38032;53.326;6.472;2023-07-29T02:14:26;19.10;99.90
52016;DHT22;38032;53.326;6.472;2023-07-29T02:16:52;19.00;99.90
52016;DHT22;38032;53.326;6.472;2023-07-29T02:19:18;19.00;99.90
52016;DHT22;38032;53.326;6.472;2023-07-29T02:21:43;18.90;99.90
52016;DHT22;38032;53.326;6.472;2023-07-29T02:24:09;18.90;99.90
52016;DHT22;38032;53.326;6.472;2023-07-29T02:26:35;18.80;99.90
52016;DHT22;38032;53.326;6.472;2023-07-29T02:29:01;18.80;99.90
52016;DHT22;38032;53.326;6.472;2023-07-29T02:31:27;18.80;99.90
52016;DHT22;38032;53.326;6.472;2023-07-29T02:33:53;18.80;99.90
52016;DHT22;38032;53.326;6.472;2023-07-29T02:36:19;18.80;99.90
52016;DHT22;38032;53.326;6.472;2023-07-29T02:38:45;18.70;99.90
52016;DHT22;38032;53.326;6.472;2023-07-29T02:41:11;18.70;99.90
52016;DHT22;38032;53.326;6.472;2023-07-29T02:43:38;18.70;99.90
52016;DHT22;38032;53.326;6.472;2023-07-29T02:46:06;18.70;99.90
52016;DHT22;38032;53.326;6.472;2023-07-29T02:48:32;18.70;99.90
52016;DHT22;38032;53.326;6.472;2023-07-29T02:50:58;18.70;99.90
52016;DHT22;38032;53.326;6.472;2023-07-29T02:53:24;18.70;99.90
52016;DHT22;38032;53.326;6.472;2023-07-29T02:55:50;18.60;99.90
52016;DHT22;38032;53.326;6.472;2023-07-29T02:58:16;18.70;99.90
52016;DHT22;38032;53.326;6.472;2023-07-29T03:00:42;18.60;99.90
52016;DHT22;38032;53.326;6.472;2023-07-29T03:03:09;18.60;99.90
52016;DHT22;38032;53.326;6.472;2023-07-29T03:05:36;18.60;99.90
52016;DHT22;38032;53.326;6.472;2023-07-29T03:08:03;18.60;99.90
52016;DHT22;38032;53.326;6.472;2023-07-29T03:10:29;18.50;99.90
52016;DHT22;38032;53.326;6.472;2023-07-29T03:12:55;18.50;99.90
52016;DHT22;38032;53.326;6.472;2023-07-29T03:15:27;18.40;99.90
52016;DHT22;38032;53.326;6.472;2023-07-29T03:17:53;18.40;99.90
52016;DHT22;38032;53.326;6.472;2023-07-29T03:20:19;18.40;99.90
52016;DHT22;38032;53.326;6.472;2023-07-29T03:22:46;18.40;99.90
52016;DHT22;38032;53.326;6.472;2023-07-29T03:25:13;18.40;99.90
52016;DHT22;38032;53.326;6.472;2023-07-29T03:27:38;18.30;99.90
52016;DHT22;38032;53.326;6.472;2023-07-29T03:30:06;18.30;99.90
52016;DHT22;38032;53.326;6.472;2023-07-29T03:32:33;18.30;99.90
52016;DHT22;38032;53.326;6.472;2023-07-29T03:34:58;18.20;99.90
52016;DHT22;38032;53.326;6.472;2023-07-29T03:37:24;18.20;99.90
52016;DHT22;38032;53.326;6.472;2023-07-29T03:39:50;18.20;99.90
52016;DHT22;38032;53.326;6.472;2023-07-29T03:42:18;18.10;99.90
52016;DHT22;38032;53.326;6.472;2023-07-29T03:44:43;18.10;99.90
52016;DHT22;38032;53.326;6.472;2023-07-29T03:47:09;18.10;99.90
52016;DHT22;38032;53.326;6.472;2023-07-29T03:49:35;18.10;99.90
52016;DHT22;38032;53.326;6.472;2023-07-29T03:52:01;18.00;99.90
52016;DHT22;38032;53.326;6.472;2023-07-29T03:54:27;18.00;99.90
52016;DHT22;38032;53.326;6.472;2023-07-29T03:56:53;18.00;99.90
52016;DHT22;38032;53.326;6.472;2023-07-29T03:59:19;17.90;99.90
52016;DHT22;38032;53.326;6.472;2023-07-29T04:01:45;17.90;99.90
52016;DHT22;38032;53.326;6.472;2023-07-29T04:04:10;17.90;99.90
52016;DHT22;38032;53.326;6.472;2023-07-29T04:06:36;17.90;99.90
52016;DHT22;38032;53.326;6.472;2023-07-29T04:09:02;17.80;99.90
52016;DHT22;38032;53.326;6.472;2023-07-29T04:11:28;17.80;99.90
52016;DHT22;38032;53.326;6.472;2023-07-29T04:13:54;17.80;99.90
52016;DHT22;38032;53.326;6.472;2023-07-29T04:16:20;17.80;99.90
52016;DHT22;38032;53.326;6.472;2023-07-29T04:18:46;17.80;99.90
52016;DHT22;38032;53.326;6.472;2023-07-29T04:21:12;17.80;99.90
52016;DHT22;38032;53.326;6.472;2023-07-29T04:23:38;17.80;99.90
52016;DHT22;38032;53.326;6.472;2023-07-29T04:26:04;17.80;99.90
52016;DHT22;38032;53.326;6.472;2023-07-29T04:28:30;17.80;99.90
52016;DHT22;38032;53.326;6.472;2023-07-29T04:30:56;17.90;99.90
52016;DHT22;38032;53.326;6.472;2023-07-29T04:33:21;17.90;99.90
52016;DHT22;38032;53.326;6.472;2023-07-29T04:35:47;17.90;99.90
52016;DHT22;38032;53.326;6.472;2023-07-29T04:38:14;17.90;99.90
52016;DHT22;38032;53.326;6.472;2023-07-29T04:40:39;17.90;99.90
52016;DHT22;38032;53.326;6.472;2023-07-29T04:43:05;17.90;99.90
52016;DHT22;38032;53.326;6.472;2023-07-29T04:45:31;18.00;99.90
52016;DHT22;38032;53.326;6.472;2023-07-29T04:47:58;17.90;99.90
52016;DHT22;38032;53.326;6.472;2023-07-29T04:50:24;18.00;99.90
52016;DHT22;38032;53.326;6.472;2023-07-29T04:52:50;18.00;99.90
52016;DHT22;38032;53.326;6.472;2023-07-29T04:55:16;18.00;99.90
52016;DHT22;38032;53.326;6.472;2023-07-29T04:57:42;18.00;99.90
52016;DHT22;38032;53.326;6.472;2023-07-29T05:00:08;18.00;99.90
52016;DHT22;38032;53.326;6.472;2023-07-29T05:02:35;18.00;99.90
52016;DHT22;38032;53.326;6.472;2023-07-29T05:05:01;18.10;99.90
52016;DHT22;38032;53.326;6.472;2023-07-29T05:07:27;18.10;99.90
52016;DHT22;38032;53.326;6.472;2023-07-29T05:09:53;18.10;99.90
52016;DHT22;38032;53.326;6.472;2023-07-29T05:12:19;18.10;99.90
52016;DHT22;38032;53.326;6.472;2023-07-29T05:14:45;18.10;99.90
52016;DHT22;38032;53.326;6.472;2023-07-29T05:17:11;18.10;99.90
52016;DHT22;38032;53.326;6.472;2023-07-29T05:19:37;18.20;99.90
52016;DHT22;38032;53.326;6.472;2023-07-29T05:22:03;18.10;99.90
52016;DHT22;38032;53.326;6.472;2023-07-29T05:24:29;18.20;99.90
52016;DHT22;38032;53.326;6.472;2023-07-29T05:26:54;18.20;99.90
52016;DHT22;38032;53.326;6.472;2023-07-29T05:29:20;18.20;99.90
52016;DHT22;38032;53.326;6.472;2023-07-29T05:31:46;18.20;99.90
52016;DHT22;38032;53.326;6.472;2023-07-29T05:34:12;18.20;99.90
52016;DHT22;38032;53.326;6.472;2023-07-29T05:36:38;18.30;99.90
52016;DHT22;38032;53.326;6.472;2023-07-29T05:39:04;18.30;99.90
52016;DHT22;38032;53.326;6.472;2023-07-29T05:41:30;18.30;99.90
52016;DHT22;38032;53.326;6.472;2023-07-29T05:43:56;18.30;99.90
52016;DHT22;38032;53.326;6.472;2023-07-29T05:46:22;18.40;99.90
52016;DHT22;38032;53.326;6.472;2023-07-29T05:48:48;18.40;99.90
52016;DHT22;38032;53.326;6.472;2023-07-29T05:51:14;18.40;99.90
52016;DHT22;38032;53.326;6.472;2023-07-29T05:53:40;18.40;99.90
52016;DHT22;38032;53.326;6.472;2023-07-29T05:56:06;18.40;99.90
52016;DHT22;38032;53.326;6.472;2023-07-29T05:58:32;18.50;99.90
52016;DHT22;38032;53.326;6.472;2023-07-29T06:00:58;18.50;99.90
52016;DHT22;38032;53.326;6.472;2023-07-29T06:03:24;18.50;99.90
52016;DHT22;38032;53.326;6.472;2023-07-29T06:05:50;18.50;99.90
52016;DHT22;38032;53.326;6.472;2023-07-29T06:08:16;18.50;99.90
52016;DHT22;38032;53.326;6.472;2023-07-29T06:10:42;18.60;99.90
52016;DHT22;38032;53.326;6.472;2023-07-29T06:13:07;18.60;99.90
52016;DHT22;38032;53.326;6.472;2023-07-29T06:15:33;18.60;99.90
52016;DHT22;38032;53.326;6.472;2023-07-29T06:17:59;18.70;99.90
52016;DHT22;38032;53.326;6.472;2023-07-29T06:20:25;18.70;99.90
52016;DHT22;38032;53.326;6.472;2023-07-29T06:22:51;18.70;99.90
52016;DHT22;38032;53.326;6.472;2023-07-29T06:25:17;18.70;99.90
52016;DHT22;38032;53.326;6.472;2023-07-29T06:27:43;18.80;99.90
52016;DHT22;38032;53.326;6.472;2023-07-29T06:30:09;18.80;99.90
52016;DHT22;38032;53.326;6.472;2023-07-29T06:32:35;18.90;99.90
52016;DHT22;38032;53.326;6.472;2023-07-29T06:35:01;18.80;99.90
52016;DHT22;38032;53.326;6.472;2023-07-29T06:37:27;19.00;99.90
52016;DHT22;38032;53.326;6.472;2023-07-29T06:39:53;19.00;99.90
52016;DHT22;38032;53.326;6.472;2023-07-29T06:42:19;19.10;99.90
52016;DHT22;38032;53.326;6.472;2023-07-29T06:44:44;19.30;99.90
52016;DHT22;38032;53.326;6.472;2023-07-29T06:47:12;19.40;99.90
52016;DHT22;38032;53.326;6.472;2023-07-29T06:49:38;19.40;99.90
52016;DHT22;38032;53.326;6.472;2023-07-29T06:52:04;19.50;99.90
52016;DHT22;38032;53.326;6.472;2023-07-29T06:54:30;19.50;99.90
52016;DHT22;38032;53.326;6.472;2023-07-29T06:56:56;19.60;99.90
52016;DHT22;38032;53.326;6.472;2023-07-29T06:59:21;19.60;99.90
52016;DHT22;38032;53.326;6.472;2023-07-29T07:01:47;19.70;99.90
52016;DHT22;38032;53.326;6.472;2023-07-29T07:04:13;19.60;99.90
52016;DHT22;38032;53.326;6.472;2023-07-29T07:06:39;19.70;99.90
52016;DHT22;38032;53.326;6.472;2023-07-29T07:09:05;19.70;99.90
52016;DHT22;38032;53.326;6.472;2023-07-29T07:11:31;19.70;99.90
52016;DHT22;38032;53.326;6.472;2023-07-29T07:13:57;19.80;99.90
52016;DHT22;38032;53.326;6.472;2023-07-29T07:16:23;19.80;99.90
52016;DHT22;38032;53.326;6.472;2023-07-29T07:18:49;19.90;99.90
52016;DHT22;38032;53.326;6.472;2023-07-29T07:21:15;19.90;99.90
52016;DHT22;38032;53.326;6.472;2023-07-29T07:23:41;20.00;99.90
52016;DHT22;38032;53.326;6.472;2023-07-29T07:26:07;20.00;99.90
52016;DHT22;38032;53.326;6.472;2023-07-29T07:28:33;20.10;99.90
52016;DHT22;38032;53.326;6.472;2023-07-29T07:30:58;20.10;99.90
52016;DHT22;38032;53.326;6.472;2023-07-29T07:33:24;20.20;99.90
52016;DHT22;38032;53.326;6.472;2023-07-29T07:35:50;20.20;99.90
52016;DHT22;38032;53.326;6.472;2023-07-29T07:38:16;20.20;99.90
52016;DHT22;38032;53.326;6.472;2023-07-29T07:40:43;20.20;99.90
52016;DHT22;38032;53.326;6.472;2023-07-29T07:43:08;20.20;99.90
52016;DHT22;38032;53.326;6.472;2023-07-29T07:45:36;20.20;99.90
52016;DHT22;38032;53.326;6.472;2023-07-29T07:48:02;20.20;99.90
52016;DHT22;38032;53.326;6.472;2023-07-29T07:50:30;20.30;99.90
52016;DHT22;38032;53.326;6.472;2023-07-29T07:52:56;20.30;99.90
52016;DHT22;38032;53.326;6.472;2023-07-29T07:55:22;20.30;99.90
52016;DHT22;38032;53.326;6.472;2023-07-29T07:57:48;20.40;99.90
52016;DHT22;38032;53.326;6.472;2023-07-29T08:00:14;20.50;99.90
52016;DHT22;38032;53.326;6.472;2023-07-29T08:02:41;20.60;99.90
52016;DHT22;38032;53.326;6.472;2023-07-29T08:05:07;20.70;99.90
52016;DHT22;38032;53.326;6.472;2023-07-29T08:07:33;20.80;99.90
52016;DHT22;38032;53.326;6.472;2023-07-29T08:09:59;20.80;99.90
52016;DHT22;38032;53.326;6.472;2023-07-29T08:12:25;20.90;99.90
52016;DHT22;38032;53.326;6.472;2023-07-29T08:14:51;21.00;99.90
52016;DHT22;38032;53.326;6.472;2023-07-29T08:17:17;21.00;99.90
52016;DHT22;38032;53.326;6.472;2023-07-29T08:19:43;21.10;99.90
52016;DHT22;38032;53.326;6.472;2023-07-29T08:22:09;21.10;99.90
52016;DHT22;38032;53.326;6.472;2023-07-29T08:24:35;21.10;99.90
52016;DHT22;38032;53.326;6.472;2023-07-29T08:27:01;21.10;99.90
52016;DHT22;38032;53.326;6.472;2023-07-29T08:29:27;21.10;99.90
52016;DHT22;38032;53.326;6.472;2023-07-29T08:31:53;21.10;99.90
52016;DHT22;38032;53.326;6.472;2023-07-29T08:34:20;21.10;99.90
52016;DHT22;38032;53.326;6.472;2023-07-29T08:36:46;21.10;99.90
52016;DHT22;38032;53.326;6.472;2023-07-29T08:39:12;21.10;99.90
52016;DHT22;38032;53.326;6.472;2023-07-29T08:41:49;21.10;99.90
52016;DHT22;38032;53.326;6.472;2023-07-29T08:44:22;21.20;99.90
52016;DHT22;38032;53.326;6.472;2023-07-29T08:46:49;21.30;99.90
52016;DHT22;38032;53.326;6.472;2023-07-29T08:49:18;21.50;99.90
52016;DHT22;38032;53.326;6.472;2023-07-29T08:51:46;21.60;99.90
52016;DHT22;38032;53.326;6.472;2023-07-29T08:54:14;21.80;99.90
52016;DHT22;38032;53.326;6.472;2023-07-29T08:56:43;22.00;99.90
52016;DHT22;38032;53.326;6.472;2023-07-29T08:59:10;22.00;99.90
52016;DHT22;38032;53.326;6.472;2023-07-29T09:01:38;22.00;99.90
52016;DHT22;38032;53.326;6.472;2023-07-29T09:04:04;22.10;99.90
52016;DHT22;38032;53.326;6.472;2023-07-29T09:06:31;22.20;99.90
52016;DHT22;38032;53.326;6.472;2023-07-29T09:08:58;22.30;99.90
52016;DHT22;38032;53.326;6.472;2023-07-29T09:11:25;22.30;99.90
52016;DHT22;38032;53.326;6.472;2023-07-29T09:13:51;22.30;99.90
52016;DHT22;38032;53.326;6.472;2023-07-29T09:16:19;22.30;99.90
52016;DHT22;38032;53.326;6.472;2023-07-29T09:18:48;22.30;99.90
52016;DHT22;38032;53.326;6.472;2023-07-29T09:21:17;22.50;99.90
52016;DHT22;38032;53.326;6.472;2023-07-29T09:23:44;22.80;99.90
52016;DHT22;38032;53.326;6.472;2023-07-29T09:26:11;23.10;99.90
52016;DHT22;38032;53.326;6.472;2023-07-29T09:28:38;23.30;99.90
52016;DHT22;38032;53.326;6.472;2023-07-29T09:31:04;23.40;99.90
52016;DHT22;38032;53.326;6.472;2023-07-29T09:33:34;23.90;99.90
52016;DHT22;38032;53.326;6.472;2023-07-29T09:36:08;24.60;99.90
52016;DHT22;38032;53.326;6.472;2023-07-29T09:38:35;25.20;99.90
52016;DHT22;38032;53.326;6.472;2023-07-29T09:41:01;26.10;99.90
52016;DHT22;38032;53.326;6.472;2023-07-29T09:43:31;26.90;99.90
52016;DHT22;38032;53.326;6.472;2023-07-29T09:46:04;27.90;99.90
52016;DHT22;38032;53.326;6.472;2023-07-29T09:48:36;28.90;99.90
52016;DHT22;38032;53.326;6.472;2023-07-29T09:51:12;29.50;99.90
52016;DHT22;38032;53.326;6.472;2023-07-29T09:53:43;30.20;99.50
52016;DHT22;38032;53.326;6.472;2023-07-29T09:56:10;30.40;97.30
52016;DHT22;38032;53.326;6.472;2023-07-29T09:58:37;30.30;95.30
52016;DHT22;38032;53.326;6.472;2023-07-29T10:01:06;30.90;94.40
52016;DHT22;38032;53.326;6.472;2023-07-29T10:03:34;31.80;93.30
52016;DHT22;38032;53.326;6.472;2023-07-29T10:06:02;32.20;90.00
52016;DHT22;38032;53.326;6.472;2023-07-29T10:08:31;32.30;86.10
52016;DHT22;38032;53.326;6.472;2023-07-29T10:11:01;32.20;84.00
52016;DHT22;38032;53.326;6.472;2023-07-29T10:13:28;32.10;83.00
52016;DHT22;38032;53.326;6.472;2023-07-29T10:15:54;31.80;82.20
52016;DHT22;38032;53.326;6.472;2023-07-29T10:18:23;31.30;81.40
52016;DHT22;38032;53.326;6.472;2023-07-29T10:20:51;30.80;82.40
52016;DHT22;38032;53.326;6.472;2023-07-29T10:23:18;30.40;83.70
52016;DHT22;38032;53.326;6.472;2023-07-29T10:25:50;30.00;84.70
52016;DHT22;38032;53.326;6.472;2023-07-29T10:28:20;30.00;86.80
52016;DHT22;38032;53.326;6.472;2023-07-29T10:30:52;30.30;89.00
52016;DHT22;38032;53.326;6.472;2023-07-29T10:33:17;30.50;89.10
52016;DHT22;38032;53.326;6.472;2023-07-29T10:35:43;30.80;87.90
52016;DHT22;38032;53.326;6.472;2023-07-29T10:38:10;31.20;86.70
52016;DHT22;38032;53.326;6.472;2023-07-29T10:40:52;31.90;83.50
52016;DHT22;38032;53.326;6.472;2023-07-29T10:43:32;32.10;80.80
52016;DHT22;38032;53.326;6.472;2023-07-29T10:46:19;32.10;79.60
52016;DHT22;38032;53.326;6.472;2023-07-29T10:51:24;32.00;78.10
52016;DHT22;38032;53.326;6.472;2023-07-29T10:53:59;31.80;77.70
52016;DHT22;38032;53.326;6.472;2023-07-29T10:56:36;31.60;78.00
52016;DHT22;38032;53.326;6.472;2023-07-29T10:59:31;31.30;77.70
52016;DHT22;38032;53.326;6.472;2023-07-29T11:01:59;31.00;79.30
52016;DHT22;38032;53.326;6.472;2023-07-29T11:04:28;30.80;78.60
52016;DHT22;38032;53.326;6.472;2023-07-29T11:12:37;29.30;80.00
52016;DHT22;38032;53.326;6.472;2023-07-29T11:17:35;28.40;82.30
52016;DHT22;38032;53.326;6.472;2023-07-29T11:20:02;28.20;84.40
52016;DHT22;38032;53.326;6.472;2023-07-29T11:22:29;27.80;86.90
52016;DHT22;38032;53.326;6.472;2023-07-29T11:24:55;27.50;89.50
52016;DHT22;38032;53.326;6.472;2023-07-29T11:27:21;27.20;91.30
52016;DHT22;38032;53.326;6.472;2023-07-29T11:29:48;27.00;92.70
52016;DHT22;38032;53.326;6.472;2023-07-29T11:32:15;27.00;95.40
52016;DHT22;38032;53.326;6.472;2023-07-29T11:34:41;27.10;97.80
52016;DHT22;38032;53.326;6.472;2023-07-29T11:37:10;27.30;98.80
52016;DHT22;38032;53.326;6.472;2023-07-29T11:39:40;27.40;98.60
52016;DHT22;38032;53.326;6.472;2023-07-29T11:42:07;27.40;98.50
52016;DHT22;38032;53.326;6.472;2023-07-29T11:44:36;27.50;98.10
52016;DHT22;38032;53.326;6.472;2023-07-29T11:47:05;27.50;97.10
52016;DHT22;38032;53.326;6.472;2023-07-29T11:49:33;27.50;96.70
52016;DHT22;38032;53.326;6.472;2023-07-29T11:51:59;27.50;96.80
52016;DHT22;38032;53.326;6.472;2023-07-29T11:54:25;27.40;96.80
52016;DHT22;38032;53.326;6.472;2023-07-29T11:56:51;27.30;96.50
52016;DHT22;38032;53.326;6.472;2023-07-29T11:59:17;27.10;96.30
52016;DHT22;38032;53.326;6.472;2023-07-29T12:01:43;26.80;96.00
52016;DHT22;38032;53.326;6.472;2023-07-29T12:04:10;26.50;97.00
52016;DHT22;38032;53.326;6.472;2023-07-29T12:06:37;26.20;98.90
52016;DHT22;38032;53.326;6.472;2023-07-29T12:09:04;25.90;99.90
52016;DHT22;38032;53.326;6.472;2023-07-29T12:11:30;25.80;99.90
52016;DHT22;38032;53.326;6.472;2023-07-29T12:13:56;25.80;99.90
52016;DHT22;38032;53.326;6.472;2023-07-29T12:16:22;25.70;99.90
52016;DHT22;38032;53.326;6.472;2023-07-29T12:18:50;25.50;99.90
52016;DHT22;38032;53.326;6.472;2023-07-29T12:21:18;25.40;99.90
52016;DHT22;38032;53.326;6.472;2023-07-29T12:23:44;25.30;99.90
52016;DHT22;38032;53.326;6.472;2023-07-29T12:26:10;25.20;99.90
52016;DHT22;38032;53.326;6.472;2023-07-29T12:28:36;25.20;99.90
52016;DHT22;38032;53.326;6.472;2023-07-29T12:31:07;25.30;99.90
52016;DHT22;38032;53.326;6.472;2023-07-29T12:33:35;25.30;99.90
52016;DHT22;38032;53.326;6.472;2023-07-29T12:36:02;25.40;99.90
52016;DHT22;38032;53.326;6.472;2023-07-29T12:38:29;25.50;99.90
52016;DHT22;38032;53.326;6.472;2023-07-29T12:40:55;25.60;99.90
52016;DHT22;38032;53.326;6.472;2023-07-29T12:43:22;25.60;99.90
52016;DHT22;38032;53.326;6.472;2023-07-29T12:45:49;25.60;99.90
52016;DHT22;38032;53.326;6.472;2023-07-29T12:48:15;25.50;99.90
52016;DHT22;38032;53.326;6.472;2023-07-29T12:50:41;25.50;99.90
52016;DHT22;38032;53.326;6.472;2023-07-29T12:53:08;25.50;99.90
52016;DHT22;38032;53.326;6.472;2023-07-29T12:55:36;25.40;99.90
52016;DHT22;38032;53.326;6.472;2023-07-29T12:58:02;25.40;99.90
52016;DHT22;38032;53.326;6.472;2023-07-29T13:00:29;25.40;99.90
52016;DHT22;38032;53.326;6.472;2023-07-29T13:02:55;25.40;99.90
52016;DHT22;38032;53.326;6.472;2023-07-29T13:05:21;25.30;99.90
52016;DHT22;38032;53.326;6.472;2023-07-29T13:07:47;25.30;99.90
52016;DHT22;38032;53.326;6.472;2023-07-29T13:10:13;25.20;99.90
52016;DHT22;38032;53.326;6.472;2023-07-29T13:12:40;25.10;99.90
52016;DHT22;38032;53.326;6.472;2023-07-29T13:15:06;25.20;99.90
52016;DHT22;38032;53.326;6.472;2023-07-29T13:17:33;25.40;99.90
52016;DHT22;38032;53.326;6.472;2023-07-29T13:19:59;25.50;99.90
52016;DHT22;38032;53.326;6.472;2023-07-29T13:22:25;25.80;99.90
52016;DHT22;38032;53.326;6.472;2023-07-29T13:24:51;25.90;99.90
52016;DHT22;38032;53.326;6.472;2023-07-29T13:27:17;25.90;99.90
52016;DHT22;38032;53.326;6.472;2023-07-29T13:29:43;25.90;99.90
52016;DHT22;38032;53.326;6.472;2023-07-29T13:32:09;25.80;99.90
52016;DHT22;38032;53.326;6.472;2023-07-29T13:34:35;25.90;99.90
52016;DHT22;38032;53.326;6.472;2023-07-29T13:37:01;25.90;99.90
52016;DHT22;38032;53.326;6.472;2023-07-29T13:39:27;25.80;99.90
52016;DHT22;38032;53.326;6.472;2023-07-29T13:41:53;25.80;99.90
52016;DHT22;38032;53.326;6.472;2023-07-29T13:44:20;25.80;99.90
52016;DHT22;38032;53.326;6.472;2023-07-29T13:46:45;25.90;99.90
52016;DHT22;38032;53.326;6.472;2023-07-29T13:49:11;25.90;99.90
52016;DHT22;38032;53.326;6.472;2023-07-29T13:51:37;25.90;99.90
52016;DHT22;38032;53.326;6.472;2023-07-29T13:54:03;25.90;99.90
52016;DHT22;38032;53.326;6.472;2023-07-29T13:56:29;25.90;99.90
52016;DHT22;38032;53.326;6.472;2023-07-29T13:58:55;25.90;99.90
52016;DHT22;38032;53.326;6.472;2023-07-29T14:01:21;25.90;99.70
52016;DHT22;38032;53.326;6.472;2023-07-29T14:03:49;26.10;99.90
52016;DHT22;38032;53.326;6.472;2023-07-29T14:06:15;26.20;99.90
52016;DHT22;38032;53.326;6.472;2023-07-29T14:08:41;26.30;99.90
52016;DHT22;38032;53.326;6.472;2023-07-29T14:11:07;26.40;99.50
52016;DHT22;38032;53.326;6.472;2023-07-29T14:13:33;26.40;97.70
52016;DHT22;38032;53.326;6.472;2023-07-29T14:16:05;26.30;97.60
52016;DHT22;38032;53.326;6.472;2023-07-29T14:18:31;26.30;97.50
52016;DHT22;38032;53.326;6.472;2023-07-29T14:20:57;26.30;96.60
52016;DHT22;38032;53.326;6.472;2023-07-29T14:23:23;26.20;96.00
52016;DHT22;38032;53.326;6.472;2023-07-29T14:25:48;26.20;96.70
52016;DHT22;38032;53.326;6.472;2023-07-29T14:28:14;26.20;96.30
52016;DHT22;38032;53.326;6.472;2023-07-29T14:30:40;26.00;95.90
52016;DHT22;38032;53.326;6.472;2023-07-29T14:33:07;25.90;95.70
52016;DHT22;38032;53.326;6.472;2023-07-29T14:35:33;25.90;95.50
52016;DHT22;38032;53.326;6.472;2023-07-29T14:37:59;25.80;95.40
52016;DHT22;38032;53.326;6.472;2023-07-29T14:40:24;25.80;96.10
52016;DHT22;38032;53.326;6.472;2023-07-29T14:42:50;25.80;96.20
52016;DHT22;38032;53.326;6.472;2023-07-29T14:45:16;25.80;96.40
52016;DHT22;38032;53.326;6.472;2023-07-29T14:47:42;25.90;96.70
52016;DHT22;38032;53.326;6.472;2023-07-29T14:50:08;25.90;96.80
52016;DHT22;38032;53.326;6.472;2023-07-29T14:52:34;25.90;96.10
52016;DHT22;38032;53.326;6.472;2023-07-29T14:55:00;25.80;95.80
52016;DHT22;38032;53.326;6.472;2023-07-29T14:57:26;25.90;95.90
52016;DHT22;38032;53.326;6.472;2023-07-29T14:59:52;25.90;96.00
52016;DHT22;38032;53.326;6.472;2023-07-29T15:02:18;25.90;95.80
52016;DHT22;38032;53.326;6.472;2023-07-29T15:04:43;25.90;96.10
52016;DHT22;38032;53.326;6.472;2023-07-29T15:07:09;25.90;96.00
52016;DHT22;38032;53.326;6.472;2023-07-29T15:09:35;25.80;95.40
52016;DHT22;38032;53.326;6.472;2023-07-29T15:12:02;25.80;95.50
52016;DHT22;38032;53.326;6.472;2023-07-29T15:14:28;25.70;95.30
52016;DHT22;38032;53.326;6.472;2023-07-29T15:16:54;25.70;94.30
52016;DHT22;38032;53.326;6.472;2023-07-29T15:19:19;25.70;94.50
52016;DHT22;38032;53.326;6.472;2023-07-29T15:21:45;25.70;94.30
52016;DHT22;38032;53.326;6.472;2023-07-29T15:24:12;25.60;94.00
52016;DHT22;38032;53.326;6.472;2023-07-29T15:26:38;25.50;94.30
52016;DHT22;38032;53.326;6.472;2023-07-29T15:29:04;25.40;94.20
52016;DHT22;38032;53.326;6.472;2023-07-29T15:31:30;25.30;94.20
52016;DHT22;38032;53.326;6.472;2023-07-29T15:33:56;25.20;94.80
52016;DHT22;38032;53.326;6.472;2023-07-29T15:36:22;25.20;95.70
52016;DHT22;38032;53.326;6.472;2023-07-29T15:38:48;25.20;96.50
52016;DHT22;38032;53.326;6.472;2023-07-29T15:41:14;25.10;96.20
52016;DHT22;38032;53.326;6.472;2023-07-29T15:43:40;25.10;95.50
52016;DHT22;38032;53.326;6.472;2023-07-29T15:46:06;24.90;95.20